sensor_id;sensor_type;location;lat;lon;timestamp;P1;durP1;ratioP1;P2;durP2;ratioP2
13816;SDS011;6979;52.116;5.286;2022-10-28T00:00:47;5.60;;;5.20;;
13816;SDS011;6979;52.116;5.286;2022-10-28T00:03:16;5.33;;;4.93;;
13816;SDS011;6979;52.116;5.286;2022-10-28T00:05:43;5.27;;;4.77;;
13816;SDS011;6979;52.116;5.286;2022-10-28T00:08:10;5.53;;;4.70;;
13816;SDS011;6979;52.116;5.286;2022-10-28T00:10:37;5.73;;;5.20;;
13816;SDS011;6979;52.116;5.286;2022-10-28T00:13:04;5.13;;;4.67;;
13816;SDS011;6979;52.116;5.286;2022-10-28T00:15:34;6.17;;;5.57;;
13816;SDS011;6979;52.116;5.286;2022-10-28T00:18:01;5.73;;;5.23;;
13816;SDS011;6979;52.116;5.286;2022-10-28T00:20:29;9.43;;;5.33;;
13816;SDS011;6979;52.116;5.286;2022-10-28T00:22:56;7.20;;;5.90;;
13816;SDS011;6979;52.116;5.286;2022-10-28T00:25:23;6.30;;;5.23;;
13816;SDS011;6979;52.116;5.286;2022-10-28T00:27:51;5.63;;;5.13;;
13816;SDS011;6979;52.116;5.286;2022-10-28T00:30:17;6.43;;;5.70;;
13816;SDS011;6979;52.116;5.286;2022-10-28T00:32:44;5.93;;;4.70;;
13816;SDS011;6979;52.116;5.286;2022-10-28T00:35:11;6.13;;;5.53;;
13816;SDS011;6979;52.116;5.286;2022-10-28T00:37:41;7.53;;;5.73;;
13816;SDS011;6979;52.116;5.286;2022-10-28T00:40:09;9.00;;;8.10;;
13816;SDS011;6979;52.116;5.286;2022-10-28T00:42:36;7.73;;;6.97;;
13816;SDS011;6979;52.116;5.286;2022-10-28T00:45:04;7.33;;;6.73;;
13816;SDS011;6979;52.116;5.286;2022-10-28T00:47:38;6.87;;;6.17;;
13816;SDS011;6979;52.116;5.286;2022-10-28T00:50:19;8.13;;;5.90;;
13816;SDS011;6979;52.116;5.286;2022-10-28T00:52:55;6.07;;;5.57;;
13816;SDS011;6979;52.116;5.286;2022-10-28T00:55:29;6.40;;;5.80;;
13816;SDS011;6979;52.116;5.286;2022-10-28T00:57:58;6.77;;;6.10;;
13816;SDS011;6979;52.116;5.286;2022-10-28T01:00:27;7.83;;;6.50;;
13816;SDS011;6979;52.116;5.286;2022-10-28T01:02:54;8.13;;;5.60;;
13816;SDS011;6979;52.116;5.286;2022-10-28T01:05:23;6.17;;;5.57;;
13816;SDS011;6979;52.116;5.286;2022-10-28T01:07:52;8.37;;;6.23;;
13816;SDS011;6979;52.116;5.286;2022-10-28T01:10:27;9.13;;;6.43;;
13816;SDS011;6979;52.116;5.286;2022-10-28T01:13:07;7.70;;;6.03;;
13816;SDS011;6979;52.116;5.286;2022-10-28T01:15:43;9.47;;;6.17;;
13816;SDS011;6979;52.116;5.286;2022-10-28T01:18:18;5.93;;;5.43;;
13816;SDS011;6979;52.116;5.286;2022-10-28T01:24:08;6.47;;;5.77;;
13816;SDS011;6979;52.116;5.286;2022-10-28T01:26:56;6.90;;;6.30;;
13816;SDS011;6979;52.116;5.286;2022-10-28T01:32:39;9.57;;;6.10;;
13816;SDS011;6979;52.116;5.286;2022-10-28T01:35:18;6.03;;;5.43;;
13816;SDS011;6979;52.116;5.286;2022-10-28T01:37:57;6.27;;;5.77;;
13816;SDS011;6979;52.116;5.286;2022-10-28T01:40:34;5.50;;;5.00;;
13816;SDS011;6979;52.116;5.286;2022-10-28T01:43:09;5.97;;;5.37;;
13816;SDS011;6979;52.116;5.286;2022-10-28T01:45:41;5.40;;;4.97;;
13816;SDS011;6979;52.116;5.286;2022-10-28T01:48:17;6.60;;;5.47;;
13816;SDS011;6979;52.116;5.286;2022-10-28T01:50:48;10.60;;;5.47;;
13816;SDS011;6979;52.116;5.286;2022-10-28T01:53:23;8.37;;;6.30;;
13816;SDS011;6979;52.116;5.286;2022-10-28T01:55:52;6.27;;;5.77;;
13816;SDS011;6979;52.116;5.286;2022-10-28T01:58:25;6.37;;;5.77;;
13816;SDS011;6979;52.116;5.286;2022-10-28T02:00:55;6.43;;;5.73;;
13816;SDS011;6979;52.116;5.286;2022-10-28T02:03:26;6.00;;;5.40;;
13816;SDS011;6979;52.116;5.286;2022-10-28T02:05:53;5.40;;;5.00;;
13816;SDS011;6979;52.116;5.286;2022-10-28T02:08:26;6.33;;;5.27;;
13816;SDS011;6979;52.116;5.286;2022-10-28T02:11:16;6.87;;;5.87;;
13816;SDS011;6979;52.116;5.286;2022-10-28T02:13:54;8.80;;;5.57;;
13816;SDS011;6979;52.116;5.286;2022-10-28T02:16:30;5.30;;;4.80;;
13816;SDS011;6979;52.116;5.286;2022-10-28T02:19:11;5.17;;;4.67;;
13816;SDS011;6979;52.116;5.286;2022-10-28T02:21:43;6.00;;;5.50;;
13816;SDS011;6979;52.116;5.286;2022-10-28T02:24:17;5.80;;;5.20;;
13816;SDS011;6979;52.116;5.286;2022-10-28T02:26:50;5.57;;;5.07;;
13816;SDS011;6979;52.116;5.286;2022-10-28T02:29:23;5.87;;;5.27;;
13816;SDS011;6979;52.116;5.286;2022-10-28T02:31:55;5.63;;;4.90;;
13816;SDS011;6979;52.116;5.286;2022-10-28T02:34:28;6.53;;;5.10;;
13816;SDS011;6979;52.116;5.286;2022-10-28T02:36:59;7.80;;;5.97;;
13816;SDS011;6979;52.116;5.286;2022-10-28T02:39:33;5.63;;;5.13;;
13816;SDS011;6979;52.116;5.286;2022-10-28T02:42:04;5.43;;;4.80;;
13816;SDS011;6979;52.116;5.286;2022-10-28T02:44:34;5.67;;;5.17;;
13816;SDS011;6979;52.116;5.286;2022-10-28T02:47:06;7.90;;;5.77;;
13816;SDS011;6979;52.116;5.286;2022-10-28T02:49:36;6.40;;;5.40;;
13816;SDS011;6979;52.116;5.286;2022-10-28T02:52:06;6.40;;;5.80;;
13816;SDS011;6979;52.116;5.286;2022-10-28T02:54:35;5.80;;;5.20;;
13816;SDS011;6979;52.116;5.286;2022-10-28T02:57:07;7.63;;;5.97;;
13816;SDS011;6979;52.116;5.286;2022-10-28T02:59:38;5.70;;;5.20;;
13816;SDS011;6979;52.116;5.286;2022-10-28T03:02:06;8.33;;;5.47;;
13816;SDS011;6979;52.116;5.286;2022-10-28T03:04:33;5.73;;;5.20;;
13816;SDS011;6979;52.116;5.286;2022-10-28T03:07:03;8.13;;;5.77;;
13816;SDS011;6979;52.116;5.286;2022-10-28T03:09:30;7.03;;;6.17;;
13816;SDS011;6979;52.116;5.286;2022-10-28T03:11:57;6.23;;;5.67;;
13816;SDS011;6979;52.116;5.286;2022-10-28T03:14:24;9.47;;;6.83;;
13816;SDS011;6979;52.116;5.286;2022-10-28T03:16:51;7.80;;;6.00;;
13816;SDS011;6979;52.116;5.286;2022-10-28T03:19:17;6.60;;;5.67;;
13816;SDS011;6979;52.116;5.286;2022-10-28T03:21:44;7.70;;;6.63;;
13816;SDS011;6979;52.116;5.286;2022-10-28T03:24:12;6.20;;;5.60;;
13816;SDS011;6979;52.116;5.286;2022-10-28T03:26:39;7.43;;;6.17;;
13816;SDS011;6979;52.116;5.286;2022-10-28T03:29:06;8.90;;;6.70;;
13816;SDS011;6979;52.116;5.286;2022-10-28T03:31:33;7.73;;;5.40;;
13816;SDS011;6979;52.116;5.286;2022-10-28T03:34:00;8.63;;;6.80;;
13816;SDS011;6979;52.116;5.286;2022-10-28T03:36:27;6.93;;;6.20;;
13816;SDS011;6979;52.116;5.286;2022-10-28T03:38:53;6.87;;;6.03;;
13816;SDS011;6979;52.116;5.286;2022-10-28T03:41:21;8.07;;;6.60;;
13816;SDS011;6979;52.116;5.286;2022-10-28T03:43:49;6.80;;;6.20;;
13816;SDS011;6979;52.116;5.286;2022-10-28T03:46:15;11.60;;;6.57;;
13816;SDS011;6979;52.116;5.286;2022-10-28T03:48:43;7.30;;;6.20;;
13816;SDS011;6979;52.116;5.286;2022-10-28T03:51:10;7.93;;;6.10;;
13816;SDS011;6979;52.116;5.286;2022-10-28T03:53:37;6.40;;;5.50;;
13816;SDS011;6979;52.116;5.286;2022-10-28T03:56:04;6.93;;;5.40;;
13816;SDS011;6979;52.116;5.286;2022-10-28T03:58:32;7.13;;;6.43;;
13816;SDS011;6979;52.116;5.286;2022-10-28T04:00:59;8.07;;;6.33;;
13816;SDS011;6979;52.116;5.286;2022-10-28T04:03:26;5.37;;;4.87;;
13816;SDS011;6979;52.116;5.286;2022-10-28T04:05:53;7.63;;;5.93;;
13816;SDS011;6979;52.116;5.286;2022-10-28T04:08:19;5.63;;;5.13;;
13816;SDS011;6979;52.116;5.286;2022-10-28T04:10:47;12.57;;;7.17;;
13816;SDS011;6979;52.116;5.286;2022-10-28T04:13:14;7.73;;;5.30;;
13816;SDS011;6979;52.116;5.286;2022-10-28T04:15:43;6.23;;;5.63;;
13816;SDS011;6979;52.116;5.286;2022-10-28T04:18:10;7.23;;;5.77;;
13816;SDS011;6979;52.116;5.286;2022-10-28T04:20:37;7.53;;;6.03;;
13816;SDS011;6979;52.116;5.286;2022-10-28T04:23:04;9.00;;;6.23;;
13816;SDS011;6979;52.116;5.286;2022-10-28T04:25:30;7.93;;;6.90;;
13816;SDS011;6979;52.116;5.286;2022-10-28T04:27:57;8.67;;;5.60;;
13816;SDS011;6979;52.116;5.286;2022-10-28T04:30:24;6.87;;;5.77;;
13816;SDS011;6979;52.116;5.286;2022-10-28T04:32:52;10.27;;;6.83;;
13816;SDS011;6979;52.116;5.286;2022-10-28T04:35:19;9.73;;;5.90;;
13816;SDS011;6979;52.116;5.286;2022-10-28T04:37:46;7.13;;;6.40;;
13816;SDS011;6979;52.116;5.286;2022-10-28T04:40:15;9.53;;;6.43;;
13816;SDS011;6979;52.116;5.286;2022-10-28T04:42:42;8.03;;;6.50;;
13816;SDS011;6979;52.116;5.286;2022-10-28T04:45:09;8.17;;;6.40;;
13816;SDS011;6979;52.116;5.286;2022-10-28T04:47:36;5.97;;;5.37;;
13816;SDS011;6979;52.116;5.286;2022-10-28T04:50:05;7.80;;;6.73;;
13816;SDS011;6979;52.116;5.286;2022-10-28T04:52:32;7.20;;;6.37;;
13816;SDS011;6979;52.116;5.286;2022-10-28T04:54:59;6.87;;;6.27;;
13816;SDS011;6979;52.116;5.286;2022-10-28T04:57:25;6.90;;;6.10;;
13816;SDS011;6979;52.116;5.286;2022-10-28T04:59:52;7.20;;;5.90;;
13816;SDS011;6979;52.116;5.286;2022-10-28T05:02:21;7.67;;;5.57;;
13816;SDS011;6979;52.116;5.286;2022-10-28T05:04:48;7.30;;;6.57;;
13816;SDS011;6979;52.116;5.286;2022-10-28T05:07:16;8.03;;;5.77;;
13816;SDS011;6979;52.116;5.286;2022-10-28T05:09:43;6.80;;;5.87;;
13816;SDS011;6979;52.116;5.286;2022-10-28T05:12:09;6.17;;;5.53;;
13816;SDS011;6979;52.116;5.286;2022-10-28T05:14:36;7.67;;;5.83;;
13816;SDS011;6979;52.116;5.286;2022-10-28T05:17:03;6.20;;;5.60;;
13816;SDS011;6979;52.116;5.286;2022-10-28T05:19:30;8.40;;;6.30;;
13816;SDS011;6979;52.116;5.286;2022-10-28T05:21:57;6.47;;;5.87;;
13816;SDS011;6979;52.116;5.286;2022-10-28T05:24:28;6.40;;;5.80;;
13816;SDS011;6979;52.116;5.286;2022-10-28T05:26:55;9.40;;;6.13;;
13816;SDS011;6979;52.116;5.286;2022-10-28T05:29:26;6.77;;;5.20;;
13816;SDS011;6979;52.116;5.286;2022-10-28T05:31:53;7.03;;;6.33;;
13816;SDS011;6979;52.116;5.286;2022-10-28T05:34:20;6.80;;;6.10;;
13816;SDS011;6979;52.116;5.286;2022-10-28T05:36:49;8.23;;;5.97;;
13816;SDS011;6979;52.116;5.286;2022-10-28T05:39:16;6.90;;;6.30;;
13816;SDS011;6979;52.116;5.286;2022-10-28T05:41:45;7.10;;;5.77;;
13816;SDS011;6979;52.116;5.286;2022-10-28T05:44:12;8.83;;;6.23;;
13816;SDS011;6979;52.116;5.286;2022-10-28T05:46:40;7.83;;;5.83;;
13816;SDS011;6979;52.116;5.286;2022-10-28T05:49:07;7.23;;;6.33;;
13816;SDS011;6979;52.116;5.286;2022-10-28T05:51:34;7.23;;;5.43;;
13816;SDS011;6979;52.116;5.286;2022-10-28T05:54:01;7.23;;;5.70;;
13816;SDS011;6979;52.116;5.286;2022-10-28T05:56:28;7.37;;;5.13;;
13816;SDS011;6979;52.116;5.286;2022-10-28T05:58:56;8.13;;;6.20;;
13816;SDS011;6979;52.116;5.286;2022-10-28T06:01:23;8.63;;;5.93;;
13816;SDS011;6979;52.116;5.286;2022-10-28T06:03:50;7.17;;;5.10;;
13816;SDS011;6979;52.116;5.286;2022-10-28T06:06:17;7.43;;;6.07;;
13816;SDS011;6979;52.116;5.286;2022-10-28T06:08:44;6.90;;;5.60;;
13816;SDS011;6979;52.116;5.286;2022-10-28T06:11:13;6.83;;;5.63;;
13816;SDS011;6979;52.116;5.286;2022-10-28T06:13:40;6.23;;;5.27;;
13816;SDS011;6979;52.116;5.286;2022-10-28T06:16:08;7.70;;;5.73;;
13816;SDS011;6979;52.116;5.286;2022-10-28T06:18:35;6.47;;;5.87;;
13816;SDS011;6979;52.116;5.286;2022-10-28T06:21:03;6.83;;;6.13;;
13816;SDS011;6979;52.116;5.286;2022-10-28T06:23:30;6.97;;;5.30;;
13816;SDS011;6979;52.116;5.286;2022-10-28T06:25:57;8.73;;;5.27;;
13816;SDS011;6979;52.116;5.286;2022-10-28T06:28:26;7.60;;;5.33;;
13816;SDS011;6979;52.116;5.286;2022-10-28T06:31:00;6.23;;;5.43;;
13816;SDS011;6979;52.116;5.286;2022-10-28T06:33:29;9.43;;;5.77;;
13816;SDS011;6979;52.116;5.286;2022-10-28T06:35:58;6.63;;;5.70;;
13816;SDS011;6979;52.116;5.286;2022-10-28T06:38:25;12.63;;;6.03;;
13816;SDS011;6979;52.116;5.286;2022-10-28T06:40:53;7.97;;;5.17;;
13816;SDS011;6979;52.116;5.286;2022-10-28T06:43:22;8.63;;;6.10;;
13816;SDS011;6979;52.116;5.286;2022-10-28T06:45:53;8.17;;;5.50;;
13816;SDS011;6979;52.116;5.286;2022-10-28T06:48:21;6.20;;;5.10;;
13816;SDS011;6979;52.116;5.286;2022-10-28T06:50:50;10.10;;;6.03;;
13816;SDS011;6979;52.116;5.286;2022-10-28T06:53:19;14.23;;;10.07;;
13816;SDS011;6979;52.116;5.286;2022-10-28T06:55:50;9.90;;;8.03;;
13816;SDS011;6979;52.116;5.286;2022-10-28T06:58:17;6.83;;;6.00;;
13816;SDS011;6979;52.116;5.286;2022-10-28T07:00:44;8.83;;;5.73;;
13816;SDS011;6979;52.116;5.286;2022-10-28T07:03:11;7.83;;;6.13;;
13816;SDS011;6979;52.116;5.286;2022-10-28T07:05:38;7.83;;;6.50;;
13816;SDS011;6979;52.116;5.286;2022-10-28T07:08:09;6.60;;;5.63;;
13816;SDS011;6979;52.116;5.286;2022-10-28T07:10:36;7.13;;;5.23;;
13816;SDS011;6979;52.116;5.286;2022-10-28T07:13:03;5.93;;;5.30;;
13816;SDS011;6979;52.116;5.286;2022-10-28T07:15:30;7.40;;;5.70;;
13816;SDS011;6979;52.116;5.286;2022-10-28T07:17:57;10.27;;;7.43;;
13816;SDS011;6979;52.116;5.286;2022-10-28T07:20:26;9.93;;;7.40;;
13816;SDS011;6979;52.116;5.286;2022-10-28T07:22:56;8.10;;;5.97;;
13816;SDS011;6979;52.116;5.286;2022-10-28T07:25:24;10.40;;;6.47;;
13816;SDS011;6979;52.116;5.286;2022-10-28T07:27:51;8.60;;;5.00;;
13816;SDS011;6979;52.116;5.286;2022-10-28T07:30:18;7.80;;;5.80;;
13816;SDS011;6979;52.116;5.286;2022-10-28T07:32:45;7.03;;;6.23;;
13816;SDS011;6979;52.116;5.286;2022-10-28T07:35:12;6.40;;;5.47;;
13816;SDS011;6979;52.116;5.286;2022-10-28T07:37:39;6.47;;;5.33;;
13816;SDS011;6979;52.116;5.286;2022-10-28T07:40:06;11.03;;;7.93;;
13816;SDS011;6979;52.116;5.286;2022-10-28T07:42:35;9.97;;;7.03;;
13816;SDS011;6979;52.116;5.286;2022-10-28T07:45:02;8.63;;;5.57;;
13816;SDS011;6979;52.116;5.286;2022-10-28T07:47:30;6.33;;;5.67;;
13816;SDS011;6979;52.116;5.286;2022-10-28T07:49:56;6.83;;;5.63;;
13816;SDS011;6979;52.116;5.286;2022-10-28T07:52:23;9.40;;;6.03;;
13816;SDS011;6979;52.116;5.286;2022-10-28T07:54:50;8.43;;;6.07;;
13816;SDS011;6979;52.116;5.286;2022-10-28T07:57:17;7.10;;;5.87;;
13816;SDS011;6979;52.116;5.286;2022-10-28T07:59:46;6.70;;;5.70;;
13816;SDS011;6979;52.116;5.286;2022-10-28T08:02:14;5.80;;;5.17;;
13816;SDS011;6979;52.116;5.286;2022-10-28T08:04:42;6.90;;;6.20;;
13816;SDS011;6979;52.116;5.286;2022-10-28T08:07:09;5.93;;;5.30;;
13816;SDS011;6979;52.116;5.286;2022-10-28T08:09:36;10.37;;;5.60;;
13816;SDS011;6979;52.116;5.286;2022-10-28T08:12:04;7.33;;;5.83;;
13816;SDS011;6979;52.116;5.286;2022-10-28T08:14:31;8.13;;;5.50;;
13816;SDS011;6979;52.116;5.286;2022-10-28T08:17:00;7.47;;;4.97;;
13816;SDS011;6979;52.116;5.286;2022-10-28T08:19:27;8.53;;;5.30;;
13816;SDS011;6979;52.116;5.286;2022-10-28T08:21:53;6.87;;;5.40;;
13816;SDS011;6979;52.116;5.286;2022-10-28T08:24:20;6.77;;;5.03;;
13816;SDS011;6979;52.116;5.286;2022-10-28T08:26:47;8.90;;;4.93;;
13816;SDS011;6979;52.116;5.286;2022-10-28T08:29:14;8.93;;;5.67;;
13816;SDS011;6979;52.116;5.286;2022-10-28T08:31:41;6.17;;;4.90;;
13816;SDS011;6979;52.116;5.286;2022-10-28T08:34:09;7.90;;;5.43;;
13816;SDS011;6979;52.116;5.286;2022-10-28T08:36:38;8.30;;;5.70;;
13816;SDS011;6979;52.116;5.286;2022-10-28T08:39:05;6.63;;;5.10;;
13816;SDS011;6979;52.116;5.286;2022-10-28T08:41:34;4.77;;;4.33;;
13816;SDS011;6979;52.116;5.286;2022-10-28T08:47:09;7.87;;;5.37;;
13816;SDS011;6979;52.116;5.286;2022-10-28T08:49:43;9.60;;;5.40;;
13816;SDS011;6979;52.116;5.286;2022-10-28T08:52:15;6.97;;;4.97;;
13816;SDS011;6979;52.116;5.286;2022-10-28T08:54:50;6.53;;;5.93;;
13816;SDS011;6979;52.116;5.286;2022-10-28T08:57:20;6.90;;;5.00;;
13816;SDS011;6979;52.116;5.286;2022-10-28T08:59:58;6.27;;;5.00;;
13816;SDS011;6979;52.116;5.286;2022-10-28T09:02:27;6.23;;;4.50;;
13816;SDS011;6979;52.116;5.286;2022-10-28T09:05:01;6.30;;;4.93;;
13816;SDS011;6979;52.116;5.286;2022-10-28T09:07:32;7.17;;;6.37;;
13816;SDS011;6979;52.116;5.286;2022-10-28T09:10:02;15.43;;;11.63;;
13816;SDS011;6979;52.116;5.286;2022-10-28T09:12:32;10.57;;;6.73;;
13816;SDS011;6979;52.116;5.286;2022-10-28T09:15:15;4.90;;;4.20;;
13816;SDS011;6979;52.116;5.286;2022-10-28T09:17:51;5.40;;;4.90;;
13816;SDS011;6979;52.116;5.286;2022-10-28T09:20:23;5.60;;;4.30;;
13816;SDS011;6979;52.116;5.286;2022-10-28T09:22:57;7.83;;;5.33;;
13816;SDS011;6979;52.116;5.286;2022-10-28T09:25:44;6.00;;;4.80;;
13816;SDS011;6979;52.116;5.286;2022-10-28T09:28:22;6.57;;;5.00;;
13816;SDS011;6979;52.116;5.286;2022-10-28T09:31:08;7.97;;;5.03;;
13816;SDS011;6979;52.116;5.286;2022-10-28T09:33:50;8.07;;;4.80;;
13816;SDS011;6979;52.116;5.286;2022-10-28T09:36:28;7.67;;;5.00;;
13816;SDS011;6979;52.116;5.286;2022-10-28T09:38:58;7.10;;;4.27;;
13816;SDS011;6979;52.116;5.286;2022-10-28T09:41:30;5.87;;;4.40;;
13816;SDS011;6979;52.116;5.286;2022-10-28T09:44:02;7.70;;;4.27;;
13816;SDS011;6979;52.116;5.286;2022-10-28T09:46:32;6.00;;;4.63;;
13816;SDS011;6979;52.116;5.286;2022-10-28T09:49:01;8.43;;;5.00;;
13816;SDS011;6979;52.116;5.286;2022-10-28T09:54:47;5.83;;;4.50;;
13816;SDS011;6979;52.116;5.286;2022-10-28T09:57:17;5.00;;;4.23;;
13816;SDS011;6979;52.116;5.286;2022-10-28T09:59:45;6.40;;;5.17;;
13816;SDS011;6979;52.116;5.286;2022-10-28T10:02:20;6.57;;;4.13;;
13816;SDS011;6979;52.116;5.286;2022-10-28T10:04:51;8.47;;;4.73;;
13816;SDS011;6979;52.116;5.286;2022-10-28T10:07:23;6.37;;;4.80;;
13816;SDS011;6979;52.116;5.286;2022-10-28T10:09:56;5.70;;;4.37;;
13816;SDS011;6979;52.116;5.286;2022-10-28T10:12:29;8.67;;;5.00;;
13816;SDS011;6979;52.116;5.286;2022-10-28T10:14:58;7.23;;;4.37;;
13816;SDS011;6979;52.116;5.286;2022-10-28T10:17:27;6.67;;;4.30;;
13816;SDS011;6979;52.116;5.286;2022-10-28T10:20:03;5.70;;;4.13;;
13816;SDS011;6979;52.116;5.286;2022-10-28T10:22:34;6.13;;;4.27;;
13816;SDS011;6979;52.116;5.286;2022-10-28T10:25:10;5.20;;;3.67;;
13816;SDS011;6979;52.116;5.286;2022-10-28T10:27:57;7.23;;;5.60;;
13816;SDS011;6979;52.116;5.286;2022-10-28T10:30:28;6.33;;;4.73;;
13816;SDS011;6979;52.116;5.286;2022-10-28T10:32:57;8.93;;;4.90;;
13816;SDS011;6979;52.116;5.286;2022-10-28T10:35:25;4.70;;;4.30;;
13816;SDS011;6979;52.116;5.286;2022-10-28T10:37:57;7.00;;;5.10;;
13816;SDS011;6979;52.116;5.286;2022-10-28T10:40:30;6.23;;;4.57;;
13816;SDS011;6979;52.116;5.286;2022-10-28T10:43:12;5.57;;;5.00;;
13816;SDS011;6979;52.116;5.286;2022-10-28T10:45:47;6.23;;;4.97;;
13816;SDS011;6979;52.116;5.286;2022-10-28T10:48:17;6.97;;;4.07;;
13816;SDS011;6979;52.116;5.286;2022-10-28T10:50:45;4.47;;;4.00;;
13816;SDS011;6979;52.116;5.286;2022-10-28T10:53:19;8.97;;;4.00;;
13816;SDS011;6979;52.116;5.286;2022-10-28T10:55:53;5.33;;;4.40;;
13816;SDS011;6979;52.116;5.286;2022-10-28T10:58:23;6.70;;;4.53;;
13816;SDS011;6979;52.116;5.286;2022-10-28T11:00:55;7.00;;;4.60;;
13816;SDS011;6979;52.116;5.286;2022-10-28T11:03:27;7.93;;;5.47;;
13816;SDS011;6979;52.116;5.286;2022-10-28T11:05:59;10.37;;;7.73;;
13816;SDS011;6979;52.116;5.286;2022-10-28T11:08:36;7.03;;;5.83;;
13816;SDS011;6979;52.116;5.286;2022-10-28T11:11:10;6.50;;;4.50;;
13816;SDS011;6979;52.116;5.286;2022-10-28T11:13:40;5.63;;;4.80;;
13816;SDS011;6979;52.116;5.286;2022-10-28T11:16:15;9.37;;;4.23;;
13816;SDS011;6979;52.116;5.286;2022-10-28T11:18:44;8.27;;;5.10;;
13816;SDS011;6979;52.116;5.286;2022-10-28T11:21:25;4.43;;;3.93;;
13816;SDS011;6979;52.116;5.286;2022-10-28T11:27:07;4.97;;;4.03;;
13816;SDS011;6979;52.116;5.286;2022-10-28T11:29:44;7.50;;;3.83;;
13816;SDS011;6979;52.116;5.286;2022-10-28T11:32:15;5.80;;;4.70;;
13816;SDS011;6979;52.116;5.286;2022-10-28T11:35:02;9.63;;;6.20;;
13816;SDS011;6979;52.116;5.286;2022-10-28T11:37:49;6.20;;;3.97;;
13816;SDS011;6979;52.116;5.286;2022-10-28T11:40:29;6.93;;;4.40;;
13816;SDS011;6979;52.116;5.286;2022-10-28T11:43:17;7.50;;;4.77;;
13816;SDS011;6979;52.116;5.286;2022-10-28T11:45:56;8.47;;;4.90;;
13816;SDS011;6979;52.116;5.286;2022-10-28T11:48:37;5.60;;;4.27;;
13816;SDS011;6979;52.116;5.286;2022-10-28T11:51:17;5.33;;;4.00;;
13816;SDS011;6979;52.116;5.286;2022-10-28T11:54:03;6.27;;;4.13;;
13816;SDS011;6979;52.116;5.286;2022-10-28T11:56:42;4.60;;;3.90;;
13816;SDS011;6979;52.116;5.286;2022-10-28T11:59:22;7.90;;;4.47;;
13816;SDS011;6979;52.116;5.286;2022-10-28T12:02:02;6.40;;;4.50;;
13816;SDS011;6979;52.116;5.286;2022-10-28T12:04:41;5.93;;;4.30;;
13816;SDS011;6979;52.116;5.286;2022-10-28T12:07:27;6.63;;;4.33;;
13816;SDS011;6979;52.116;5.286;2022-10-28T12:10:27;5.03;;;4.23;;
13816;SDS011;6979;52.116;5.286;2022-10-28T12:13:03;6.20;;;4.43;;
13816;SDS011;6979;52.116;5.286;2022-10-28T12:15:39;7.83;;;4.30;;
13816;SDS011;6979;52.116;5.286;2022-10-28T12:18:10;7.57;;;4.33;;
13816;SDS011;6979;52.116;5.286;2022-10-28T12:20:58;7.47;;;4.37;;
13816;SDS011;6979;52.116;5.286;2022-10-28T12:23:42;9.17;;;5.00;;
13816;SDS011;6979;52.116;5.286;2022-10-28T12:26:12;7.17;;;4.27;;
13816;SDS011;6979;52.116;5.286;2022-10-28T12:28:44;9.23;;;4.30;;
13816;SDS011;6979;52.116;5.286;2022-10-28T12:31:36;5.27;;;3.70;;
13816;SDS011;6979;52.116;5.286;2022-10-28T12:34:08;7.53;;;4.53;;
13816;SDS011;6979;52.116;5.286;2022-10-28T12:36:40;6.47;;;3.90;;
13816;SDS011;6979;52.116;5.286;2022-10-28T12:39:12;5.27;;;4.13;;
13816;SDS011;6979;52.116;5.286;2022-10-28T12:41:46;6.27;;;4.67;;
13816;SDS011;6979;52.116;5.286;2022-10-28T12:44:21;4.57;;;3.90;;
13816;SDS011;6979;52.116;5.286;2022-10-28T12:46:53;5.27;;;4.23;;
13816;SDS011;6979;52.116;5.286;2022-10-28T12:49:30;7.87;;;4.63;;
13816;SDS011;6979;52.116;5.286;2022-10-28T12:52:08;5.70;;;4.17;;
13816;SDS011;6979;52.116;5.286;2022-10-28T12:54:48;9.13;;;3.90;;
13816;SDS011;6979;52.116;5.286;2022-10-28T12:57:37;7.03;;;4.57;;
13816;SDS011;6979;52.116;5.286;2022-10-28T13:00:08;11.13;;;5.27;;
13816;SDS011;6979;52.116;5.286;2022-10-28T13:02:45;6.47;;;3.87;;
13816;SDS011;6979;52.116;5.286;2022-10-28T13:05:17;7.83;;;3.97;;
13816;SDS011;6979;52.116;5.286;2022-10-28T13:07:59;7.03;;;4.50;;
13816;SDS011;6979;52.116;5.286;2022-10-28T13:11:05;10.70;;;5.30;;
13816;SDS011;6979;52.116;5.286;2022-10-28T13:13:54;5.40;;;4.17;;
13816;SDS011;6979;52.116;5.286;2022-10-28T13:19:37;8.10;;;4.30;;
13816;SDS011;6979;52.116;5.286;2022-10-28T13:25:47;8.33;;;4.50;;
13816;SDS011;6979;52.116;5.286;2022-10-28T13:28:32;5.50;;;4.03;;
13816;SDS011;6979;52.116;5.286;2022-10-28T13:31:02;5.47;;;4.03;;
13816;SDS011;6979;52.116;5.286;2022-10-28T13:33:32;7.73;;;4.67;;
13816;SDS011;6979;52.116;5.286;2022-10-28T13:36:08;5.77;;;3.73;;
13816;SDS011;6979;52.116;5.286;2022-10-28T13:38:41;6.60;;;4.47;;
13816;SDS011;6979;52.116;5.286;2022-10-28T13:41:10;4.80;;;4.13;;
13816;SDS011;6979;52.116;5.286;2022-10-28T13:43:56;4.80;;;4.13;;
13816;SDS011;6979;52.116;5.286;2022-10-28T13:49:26;6.83;;;3.87;;
13816;SDS011;6979;52.116;5.286;2022-10-28T13:51:58;6.90;;;4.67;;
13816;SDS011;6979;52.116;5.286;2022-10-28T13:54:27;7.70;;;4.30;;
13816;SDS011;6979;52.116;5.286;2022-10-28T13:57:07;8.40;;;4.50;;
13816;SDS011;6979;52.116;5.286;2022-10-28T13:59:49;5.40;;;4.40;;
13816;SDS011;6979;52.116;5.286;2022-10-28T14:02:22;4.70;;;4.27;;
13816;SDS011;6979;52.116;5.286;2022-10-28T14:04:57;8.00;;;4.43;;
13816;SDS011;6979;52.116;5.286;2022-10-28T14:07:26;5.57;;;4.30;;
13816;SDS011;6979;52.116;5.286;2022-10-28T14:09:56;5.93;;;4.20;;
13816;SDS011;6979;52.116;5.286;2022-10-28T14:12:39;8.30;;;4.70;;
13816;SDS011;6979;52.116;5.286;2022-10-28T14:15:18;8.03;;;4.43;;
13816;SDS011;6979;52.116;5.286;2022-10-28T14:17:55;4.77;;;3.70;;
13816;SDS011;6979;52.116;5.286;2022-10-28T14:20:28;7.67;;;4.13;;
13816;SDS011;6979;52.116;5.286;2022-10-28T14:22:58;8.70;;;4.70;;
13816;SDS011;6979;52.116;5.286;2022-10-28T14:40:33;4.97;;;3.77;;
13816;SDS011;6979;52.116;5.286;2022-10-28T14:43:09;4.80;;;4.03;;
13816;SDS011;6979;52.116;5.286;2022-10-28T14:45:57;9.27;;;4.37;;
13816;SDS011;6979;52.116;5.286;2022-10-28T14:48:45;7.93;;;4.47;;
13816;SDS011;6979;52.116;5.286;2022-10-28T14:51:15;5.73;;;4.30;;
13816;SDS011;6979;52.116;5.286;2022-10-28T14:53:46;6.63;;;4.50;;
13816;SDS011;6979;52.116;5.286;2022-10-28T14:56:17;8.53;;;5.03;;
13816;SDS011;6979;52.116;5.286;2022-10-28T14:58:47;8.57;;;4.03;;
13816;SDS011;6979;52.116;5.286;2022-10-28T15:01:21;6.40;;;4.23;;
13816;SDS011;6979;52.116;5.286;2022-10-28T15:03:51;6.10;;;4.33;;
13816;SDS011;6979;52.116;5.286;2022-10-28T15:06:27;9.23;;;4.93;;
13816;SDS011;6979;52.116;5.286;2022-10-28T15:09:19;8.27;;;4.67;;
13816;SDS011;6979;52.116;5.286;2022-10-28T15:11:49;5.63;;;3.87;;
13816;SDS011;6979;52.116;5.286;2022-10-28T15:14:24;6.27;;;4.27;;
13816;SDS011;6979;52.116;5.286;2022-10-28T15:16:55;6.73;;;4.60;;
13816;SDS011;6979;52.116;5.286;2022-10-28T15:19:25;5.07;;;4.20;;
13816;SDS011;6979;52.116;5.286;2022-10-28T15:22:03;5.07;;;4.37;;
13816;SDS011;6979;52.116;5.286;2022-10-28T15:27:01;4.73;;;2.90;;
13816;SDS011;6979;52.116;5.286;2022-10-28T15:29:29;8.43;;;3.10;;
13816;SDS011;6979;52.116;5.286;2022-10-28T15:34:52;4.97;;;3.10;;
13816;SDS011;6979;52.116;5.286;2022-10-28T15:37:19;4.33;;;2.83;;
13816;SDS011;6979;52.116;5.286;2022-10-28T15:39:49;9.23;;;3.40;;
13816;SDS011;6979;52.116;5.286;2022-10-28T15:42:33;5.10;;;3.50;;
13816;SDS011;6979;52.116;5.286;2022-10-28T15:45:09;4.07;;;3.40;;
13816;SDS011;6979;52.116;5.286;2022-10-28T15:47:42;8.47;;;3.80;;
13816;SDS011;6979;52.116;5.286;2022-10-28T15:50:22;5.67;;;3.17;;
13816;SDS011;6979;52.116;5.286;2022-10-28T15:52:51;7.63;;;4.07;;
13816;SDS011;6979;52.116;5.286;2022-10-28T15:55:32;6.60;;;3.60;;
13816;SDS011;6979;52.116;5.286;2022-10-28T15:58:02;4.53;;;2.93;;
13816;SDS011;6979;52.116;5.286;2022-10-28T16:00:58;10.90;;;4.13;;
13816;SDS011;6979;52.116;5.286;2022-10-28T16:03:25;4.60;;;3.00;;
13816;SDS011;6979;52.116;5.286;2022-10-28T16:05:56;3.47;;;3.17;;
13816;SDS011;6979;52.116;5.286;2022-10-28T16:08:26;5.17;;;3.00;;
13816;SDS011;6979;52.116;5.286;2022-10-28T16:11:01;5.47;;;3.20;;
13816;SDS011;6979;52.116;5.286;2022-10-28T16:13:39;3.73;;;3.20;;